sensor_id;sensor_type;location;lat;lon;timestamp;pressure;altitude;pressure_sealevel;temperature;humidity
64086;BME280;50333;47.436;21.390;2022-09-21T00:01:28;100849.19;;;14.00;72.14
64086;BME280;50333;47.436;21.390;2022-09-21T00:04:00;100853.44;;;13.91;72.26
64086;BME280;50333;47.436;21.390;2022-09-21T00:06:30;100848.22;;;13.86;72.56
64086;BME280;50333;47.436;21.390;2022-09-21T00:08:58;100859.00;;;13.79;73.11
64086;BME280;50333;47.436;21.390;2022-09-21T00:11:28;100857.22;;;13.74;72.79
64086;BME280;50333;47.436;21.390;2022-09-21T00:13:58;100858.09;;;13.44;74.18
64086;BME280;50333;47.436;21.390;2022-09-21T00:16:27;100854.63;;;13.69;73.50
64086;BME280;50333;47.436;21.390;2022-09-21T00:18:55;100861.22;;;13.51;73.61
64086;BME280;50333;47.436;21.390;2022-09-21T00:21:24;100851.31;;;13.28;74.48
64086;BME280;50333;47.436;21.390;2022-09-21T00:23:52;100863.91;;;13.41;74.77
64086;BME280;50333;47.436;21.390;2022-09-21T00:26:23;100853.87;;;13.58;74.09
64086;BME280;50333;47.436;21.390;2022-09-21T00:28:52;100855.34;;;13.80;73.12
64086;BME280;50333;47.436;21.390;2022-09-21T00:31:21;100853.22;;;13.82;72.93
64086;BME280;50333;47.436;21.390;2022-09-21T00:33:50;100853.03;;;13.68;73.34
64086;BME280;50333;47.436;21.390;2022-09-21T00:36:20;100860.25;;;13.16;75.06
64086;BME280;50333;47.436;21.390;2022-09-21T00:38:51;100862.31;;;13.40;74.13
64086;BME280;50333;47.436;21.390;2022-09-21T00:41:19;100867.00;;;13.53;73.38
64086;BME280;50333;47.436;21.390;2022-09-21T00:46:41;100859.72;;;13.35;73.40
64086;BME280;50333;47.436;21.390;2022-09-21T00:49:09;100864.94;;;13.40;73.64
64086;BME280;50333;47.436;21.390;2022-09-21T00:51:37;100861.53;;;13.45;73.22
64086;BME280;50333;47.436;21.390;2022-09-21T00:54:12;100867.72;;;13.69;71.98
64086;BME280;50333;47.436;21.390;2022-09-21T00:56:42;100862.28;;;13.50;72.54
64086;BME280;50333;47.436;21.390;2022-09-21T00:59:11;100864.41;;;13.43;73.20
64086;BME280;50333;47.436;21.390;2022-09-21T01:01:41;100863.59;;;13.43;73.46
64086;BME280;50333;47.436;21.390;2022-09-21T01:04:10;100863.84;;;13.51;72.92
64086;BME280;50333;47.436;21.390;2022-09-21T01:06:39;100867.25;;;13.57;72.37
64086;BME280;50333;47.436;21.390;2022-09-21T01:09:08;100870.69;;;13.37;73.57
64086;BME280;50333;47.436;21.390;2022-09-21T01:14:35;100873.31;;;13.42;73.38
64086;BME280;50333;47.436;21.390;2022-09-21T01:23:00;100869.91;;;13.47;72.84
64086;BME280;50333;47.436;21.390;2022-09-21T01:25:44;100866.22;;;13.48;72.97
64086;BME280;50333;47.436;21.390;2022-09-21T01:31:17;100865.47;;;13.16;73.30
64086;BME280;50333;47.436;21.390;2022-09-21T01:33:52;100860.47;;;13.46;72.05
64086;BME280;50333;47.436;21.390;2022-09-21T01:36:25;100862.84;;;13.37;72.86
64086;BME280;50333;47.436;21.390;2022-09-21T01:38:59;100862.06;;;13.36;72.46
64086;BME280;50333;47.436;21.390;2022-09-21T01:41:30;100863.06;;;13.51;72.32
64086;BME280;50333;47.436;21.390;2022-09-21T01:44:07;100868.56;;;13.44;72.45
64086;BME280;50333;47.436;21.390;2022-09-21T01:46:36;100870.16;;;13.45;72.14
64086;BME280;50333;47.436;21.390;2022-09-21T01:49:10;100869.16;;;13.20;73.39
64086;BME280;50333;47.436;21.390;2022-09-21T01:51:50;100872.53;;;13.42;72.68
64086;BME280;50333;47.436;21.390;2022-09-21T01:54:50;100874.91;;;13.17;72.94
64086;BME280;50333;47.436;21.390;2022-09-21T01:57:42;100871.75;;;13.26;72.90
64086;BME280;50333;47.436;21.390;2022-09-21T02:00:12;100860.75;;;13.39;72.30
64086;BME280;50333;47.436;21.390;2022-09-21T02:02:50;100873.06;;;13.28;72.54
64086;BME280;50333;47.436;21.390;2022-09-21T02:05:21;100874.94;;;13.07;72.73
64086;BME280;50333;47.436;21.390;2022-09-21T02:07:50;100872.00;;;13.29;72.33
64086;BME280;50333;47.436;21.390;2022-09-21T02:10:35;100881.19;;;13.21;72.42
64086;BME280;50333;47.436;21.390;2022-09-21T02:13:06;100873.06;;;13.23;72.40
64086;BME280;50333;47.436;21.390;2022-09-21T02:19:14;100872.81;;;13.19;72.33
64086;BME280;50333;47.436;21.390;2022-09-21T02:22:29;100874.37;;;13.36;71.58
64086;BME280;50333;47.436;21.390;2022-09-21T02:25:09;100876.25;;;12.84;72.69
64086;BME280;50333;47.436;21.390;2022-09-21T02:28:00;100877.03;;;13.00;72.77
64086;BME280;50333;47.436;21.390;2022-09-21T02:30:26;100873.81;;;13.29;71.78
64086;BME280;50333;47.436;21.390;2022-09-21T02:33:36;100872.00;;;13.45;70.86
64086;BME280;50333;47.436;21.390;2022-09-21T02:36:27;100869.88;;;13.57;70.04
64086;BME280;50333;47.436;21.390;2022-09-21T02:39:05;100872.72;;;13.66;69.77
64086;BME280;50333;47.436;21.390;2022-09-21T02:41:42;100871.13;;;13.65;69.89
64086;BME280;50333;47.436;21.390;2022-09-21T02:44:16;100874.78;;;13.69;69.74
64086;BME280;50333;47.436;21.390;2022-09-21T02:46:49;100876.34;;;13.70;69.46
64086;BME280;50333;47.436;21.390;2022-09-21T02:49:24;100880.06;;;13.64;69.70
64086;BME280;50333;47.436;21.390;2022-09-21T02:51:57;100880.06;;;13.58;69.68
64086;BME280;50333;47.436;21.390;2022-09-21T02:54:29;100883.50;;;13.54;69.87
64086;BME280;50333;47.436;21.390;2022-09-21T02:57:00;100882.28;;;12.79;72.06
64086;BME280;50333;47.436;21.390;2022-09-21T02:59:28;100887.50;;;12.95;72.32
64086;BME280;50333;47.436;21.390;2022-09-21T03:01:56;100890.13;;;13.00;71.37
64086;BME280;50333;47.436;21.390;2022-09-21T03:04:24;100895.34;;;13.15;71.10
64086;BME280;50333;47.436;21.390;2022-09-21T03:06:54;100903.44;;;13.24;70.88
64086;BME280;50333;47.436;21.390;2022-09-21T03:09:23;100894.03;;;13.02;71.12
64086;BME280;50333;47.436;21.390;2022-09-21T03:11:51;100891.69;;;13.01;71.22
64086;BME280;50333;47.436;21.390;2022-09-21T03:14:18;100887.75;;;13.09;70.88
64086;BME280;50333;47.436;21.390;2022-09-21T03:16:46;100894.00;;;13.23;70.30
64086;BME280;50333;47.436;21.390;2022-09-21T03:19:14;100897.47;;;12.93;71.16
64086;BME280;50333;47.436;21.390;2022-09-21T03:21:42;100902.69;;;12.82;71.00
64086;BME280;50333;47.436;21.390;2022-09-21T03:24:11;100902.69;;;12.93;70.83
64086;BME280;50333;47.436;21.390;2022-09-21T03:26:39;100906.34;;;12.87;70.62
64086;BME280;50333;47.436;21.390;2022-09-21T03:29:06;100901.91;;;12.82;70.79
64086;BME280;50333;47.436;21.390;2022-09-21T03:31:35;100903.22;;;12.69;70.83
64086;BME280;50333;47.436;21.390;2022-09-21T03:34:02;100894.84;;;12.77;70.96
64086;BME280;50333;47.436;21.390;2022-09-21T03:36:30;100895.09;;;12.91;70.19
64086;BME280;50333;47.436;21.390;2022-09-21T03:38:58;100893.25;;;13.12;69.18
64086;BME280;50333;47.436;21.390;2022-09-21T03:41:31;100903.72;;;12.81;69.92
64086;BME280;50333;47.436;21.390;2022-09-21T03:43:59;100902.16;;;12.70;70.03
64086;BME280;50333;47.436;21.390;2022-09-21T03:46:26;100911.31;;;12.62;70.55
64086;BME280;50333;47.436;21.390;2022-09-21T03:48:54;100910.53;;;12.62;70.18
64086;BME280;50333;47.436;21.390;2022-09-21T03:51:22;100916.81;;;12.66;69.74
64086;BME280;50333;47.436;21.390;2022-09-21T03:53:50;100912.59;;;12.50;70.48
64086;BME280;50333;47.436;21.390;2022-09-21T03:56:17;100912.09;;;12.53;70.28
64086;BME280;50333;47.436;21.390;2022-09-21T03:58:45;100916.53;;;12.62;69.62
64086;BME280;50333;47.436;21.390;2022-09-21T04:01:13;100911.56;;;12.51;70.06
64086;BME280;50333;47.436;21.390;2022-09-21T04:03:41;100912.59;;;12.44;70.09
64086;BME280;50333;47.436;21.390;2022-09-21T04:06:10;100913.91;;;12.62;69.48
64086;BME280;50333;47.436;21.390;2022-09-21T04:08:39;100911.84;;;12.49;69.52
64086;BME280;50333;47.436;21.390;2022-09-21T04:11:11;100921.47;;;12.28;70.41
64086;BME280;50333;47.436;21.390;2022-09-21T04:13:39;100924.34;;;12.26;70.45
64086;BME280;50333;47.436;21.390;2022-09-21T04:16:09;100915.19;;;12.39;69.90
64086;BME280;50333;47.436;21.390;2022-09-21T04:18:37;100927.50;;;12.34;70.14
64086;BME280;50333;47.436;21.390;2022-09-21T04:21:05;100929.06;;;12.40;69.73
64086;BME280;50333;47.436;21.390;2022-09-21T04:23:33;100928.25;;;12.24;69.87
64086;BME280;50333;47.436;21.390;2022-09-21T04:26:01;100923.34;;;12.53;69.15
64086;BME280;50333;47.436;21.390;2022-09-21T04:28:29;100920.19;;;12.51;69.10
64086;BME280;50333;47.436;21.390;2022-09-21T04:30:57;100926.44;;;12.35;69.40
64086;BME280;50333;47.436;21.390;2022-09-21T04:33:25;100928.28;;;12.39;68.84
64086;BME280;50333;47.436;21.390;2022-09-21T04:35:54;100932.78;;;12.59;68.44
64086;BME280;50333;47.436;21.390;2022-09-21T04:38:22;100939.78;;;12.38;68.85
64086;BME280;50333;47.436;21.390;2022-09-21T04:40:54;100940.53;;;12.29;69.34
64086;BME280;50333;47.436;21.390;2022-09-21T04:43:23;100942.84;;;12.15;69.52
64086;BME280;50333;47.436;21.390;2022-09-21T04:45:51;100944.19;;;12.27;69.35
64086;BME280;50333;47.436;21.390;2022-09-21T04:48:19;100944.97;;;12.23;69.65
64086;BME280;50333;47.436;21.390;2022-09-21T04:50:50;100948.09;;;12.15;69.90
64086;BME280;50333;47.436;21.390;2022-09-21T04:53:17;100942.59;;;12.11;69.54
64086;BME280;50333;47.436;21.390;2022-09-21T04:55:45;100939.47;;;12.19;69.50
64086;BME280;50333;47.436;21.390;2022-09-21T04:58:13;100942.13;;;12.40;69.05
64086;BME280;50333;47.436;21.390;2022-09-21T05:00:40;100934.28;;;12.30;69.40
64086;BME280;50333;47.436;21.390;2022-09-21T05:03:08;100938.94;;;12.22;69.82
64086;BME280;50333;47.436;21.390;2022-09-21T05:05:36;100946.84;;;12.38;69.57
64086;BME280;50333;47.436;21.390;2022-09-21T05:08:03;100942.97;;;12.66;69.02
64086;BME280;50333;47.436;21.390;2022-09-21T05:10:31;100947.19;;;12.98;67.40
64086;BME280;50333;47.436;21.390;2022-09-21T05:12:59;100951.34;;;12.94;68.08
64086;BME280;50333;47.436;21.390;2022-09-21T05:15:26;100947.69;;;13.20;67.06
64086;BME280;50333;47.436;21.390;2022-09-21T05:17:54;100947.38;;;13.63;65.83
64086;BME280;50333;47.436;21.390;2022-09-21T05:20:22;100948.03;;;14.00;64.45
64086;BME280;50333;47.436;21.390;2022-09-21T05:22:50;100956.38;;;14.07;64.27
64086;BME280;50333;47.436;21.390;2022-09-21T05:25:17;100962.87;;;14.25;63.90
64086;BME280;50333;47.436;21.390;2022-09-21T05:27:45;100962.50;;;14.42;63.26
64086;BME280;50333;47.436;21.390;2022-09-21T05:30:13;100958.91;;;14.27;63.50
64086;BME280;50333;47.436;21.390;2022-09-21T05:32:47;100958.34;;;14.41;63.30
64086;BME280;50333;47.436;21.390;2022-09-21T05:35:57;100966.75;;;14.38;63.30
64086;BME280;50333;47.436;21.390;2022-09-21T05:38:26;100969.66;;;14.31;63.18
64086;BME280;50333;47.436;21.390;2022-09-21T05:40:54;100961.41;;;14.58;62.49
64086;BME280;50333;47.436;21.390;2022-09-21T05:43:22;100959.37;;;14.40;63.27
64086;BME280;50333;47.436;21.390;2022-09-21T05:45:55;100969.56;;;14.46;62.96
64086;BME280;50333;47.436;21.390;2022-09-21T05:48:40;100972.34;;;14.70;62.76
64086;BME280;50333;47.436;21.390;2022-09-21T05:54:04;100969.91;;;14.29;63.93
64086;BME280;50333;47.436;21.390;2022-09-21T05:56:51;100969.69;;;14.21;64.05
64086;BME280;50333;47.436;21.390;2022-09-21T06:00:00;100979.47;;;14.65;63.14
64086;BME280;50333;47.436;21.390;2022-09-21T06:05:44;100977.81;;;14.74;62.71
64086;BME280;50333;47.436;21.390;2022-09-21T06:08:12;100980.84;;;14.47;63.75
64086;BME280;50333;47.436;21.390;2022-09-21T06:10:39;100982.44;;;14.43;63.28
64086;BME280;50333;47.436;21.390;2022-09-21T06:13:07;100977.78;;;14.29;63.55
64086;BME280;50333;47.436;21.390;2022-09-21T06:15:35;100983.38;;;14.12;65.00
64086;BME280;50333;47.436;21.390;2022-09-21T06:18:06;100984.62;;;14.30;63.96
64086;BME280;50333;47.436;21.390;2022-09-21T06:20:35;100984.34;;;14.32;63.87
64086;BME280;50333;47.436;21.390;2022-09-21T06:23:05;100988.00;;;14.31;64.38
64086;BME280;50333;47.436;21.390;2022-09-21T06:25:33;100987.44;;;14.39;64.54
64086;BME280;50333;47.436;21.390;2022-09-21T06:30:31;100986.37;;;14.90;63.71
64086;BME280;50333;47.436;21.390;2022-09-21T06:33:01;100988.75;;;14.86;63.60
64086;BME280;50333;47.436;21.390;2022-09-21T06:35:31;100987.69;;;15.22;62.12
64086;BME280;50333;47.436;21.390;2022-09-21T06:38:01;100991.47;;;15.11;61.85
64086;BME280;50333;47.436;21.390;2022-09-21T06:40:33;100989.63;;;14.71;63.04
64086;BME280;50333;47.436;21.390;2022-09-21T06:43:03;100993.00;;;14.82;62.89
64086;BME280;50333;47.436;21.390;2022-09-21T06:45:31;100992.87;;;14.98;62.75
64086;BME280;50333;47.436;21.390;2022-09-21T06:47:59;100997.19;;;14.83;62.87
64086;BME280;50333;47.436;21.390;2022-09-21T06:50:27;100993.97;;;14.42;64.66
64086;BME280;50333;47.436;21.390;2022-09-21T06:52:59;100996.41;;;14.83;63.28
64086;BME280;50333;47.436;21.390;2022-09-21T06:55:27;100996.03;;;14.55;64.03
64086;BME280;50333;47.436;21.390;2022-09-21T06:58:00;100996.66;;;14.81;62.60
64086;BME280;50333;47.436;21.390;2022-09-21T07:00:29;100995.94;;;14.76;63.28
64086;BME280;50333;47.436;21.390;2022-09-21T07:02:58;101001.91;;;14.31;65.22
64086;BME280;50333;47.436;21.390;2022-09-21T07:05:26;101001.78;;;14.62;64.00
64086;BME280;50333;47.436;21.390;2022-09-21T07:07:57;101003.63;;;14.57;63.66
64086;BME280;50333;47.436;21.390;2022-09-21T07:10:25;100999.63;;;14.69;63.70
64086;BME280;50333;47.436;21.390;2022-09-21T07:12:53;101000.75;;;14.98;62.29
64086;BME280;50333;47.436;21.390;2022-09-21T07:15:21;101002.97;;;14.80;63.08
64086;BME280;50333;47.436;21.390;2022-09-21T07:17:49;101005.38;;;14.71;63.84
64086;BME280;50333;47.436;21.390;2022-09-21T07:20:18;101007.97;;;14.77;63.35
64086;BME280;50333;47.436;21.390;2022-09-21T07:22:46;100997.16;;;14.88;62.69
64086;BME280;50333;47.436;21.390;2022-09-21T07:25:14;101004.59;;;15.11;61.21
64086;BME280;50333;47.436;21.390;2022-09-21T07:27:42;101003.28;;;15.08;62.26
64086;BME280;50333;47.436;21.390;2022-09-21T07:30:10;101005.72;;;14.99;62.27
64086;BME280;50333;47.436;21.390;2022-09-21T07:32:38;101003.66;;;14.96;63.24
64086;BME280;50333;47.436;21.390;2022-09-21T07:35:06;100999.50;;;15.54;61.77
64086;BME280;50333;47.436;21.390;2022-09-21T07:37:34;101000.00;;;15.56;62.00
64086;BME280;50333;47.436;21.390;2022-09-21T07:40:01;101001.25;;;15.88;60.17
64086;BME280;50333;47.436;21.390;2022-09-21T07:42:32;100997.09;;;15.87;59.81
64086;BME280;50333;47.436;21.390;2022-09-21T07:45:00;101000.97;;;16.13;58.76
64086;BME280;50333;47.436;21.390;2022-09-21T07:47:31;101002.06;;;16.50;59.38
64086;BME280;50333;47.436;21.390;2022-09-21T07:49:59;101002.34;;;16.68;57.42
64086;BME280;50333;47.436;21.390;2022-09-21T07:52:27;101003.78;;;16.60;57.37
64086;BME280;50333;47.436;21.390;2022-09-21T07:54:54;101008.97;;;16.65;56.73
64086;BME280;50333;47.436;21.390;2022-09-21T07:57:22;101003.53;;;16.18;57.97
64086;BME280;50333;47.436;21.390;2022-09-21T08:00:09;101009.25;;;16.64;56.43
64086;BME280;50333;47.436;21.390;2022-09-21T08:02:37;101013.00;;;16.76;55.77
64086;BME280;50333;47.436;21.390;2022-09-21T08:05:10;101017.16;;;16.64;55.75
64086;BME280;50333;47.436;21.390;2022-09-21T08:07:38;101010.56;;;16.23;56.48
64086;BME280;50333;47.436;21.390;2022-09-21T08:10:06;101020.19;;;16.33;56.54
64086;BME280;50333;47.436;21.390;2022-09-21T08:12:34;101020.28;;;16.66;56.39
64086;BME280;50333;47.436;21.390;2022-09-21T08:15:01;101019.59;;;16.98;54.90
64086;BME280;50333;47.436;21.390;2022-09-21T08:17:29;101009.47;;;16.67;55.97
64086;BME280;50333;47.436;21.390;2022-09-21T08:19:57;101021.69;;;16.96;55.80
64086;BME280;50333;47.436;21.390;2022-09-21T08:22:25;101021.06;;;17.04;55.26
64086;BME280;50333;47.436;21.390;2022-09-21T08:24:52;101023.16;;;17.21;54.88
64086;BME280;50333;47.436;21.390;2022-09-21T08:27:22;101024.16;;;17.39;54.37
64086;BME280;50333;47.436;21.390;2022-09-21T08:29:51;101029.47;;;17.53;53.67
64086;BME280;50333;47.436;21.390;2022-09-21T08:32:19;101020.78;;;17.52;55.51
64086;BME280;50333;47.436;21.390;2022-09-21T08:35:07;101023.25;;;17.77;53.45
64086;BME280;50333;47.436;21.390;2022-09-21T08:37:35;101024.06;;;17.91;52.77
64086;BME280;50333;47.436;21.390;2022-09-21T08:40:04;101013.09;;;18.25;51.26
64086;BME280;50333;47.436;21.390;2022-09-21T08:45:03;101023.53;;;18.31;51.63
64086;BME280;50333;47.436;21.390;2022-09-21T08:50:05;101020.72;;;18.27;48.76
64086;BME280;50333;47.436;21.390;2022-09-21T08:52:40;101024.19;;;18.36;47.32
64086;BME280;50333;47.436;21.390;2022-09-21T08:55:17;101025.59;;;18.93;47.00
64086;BME280;50333;47.436;21.390;2022-09-21T08:57:45;101031.50;;;18.90;46.69
64086;BME280;50333;47.436;21.390;2022-09-21T09:00:16;101021.53;;;19.09;46.70
64086;BME280;50333;47.436;21.390;2022-09-21T09:05:24;101020.00;;;18.35;47.40
64086;BME280;50333;47.436;21.390;2022-09-21T09:21:40;101022.47;;;18.18;47.91
64086;BME280;50333;47.436;21.390;2022-09-21T09:24:10;101023.94;;;18.60;46.22
64086;BME280;50333;47.436;21.390;2022-09-21T09:29:28;101018.59;;;18.52;45.79
64086;BME280;50333;47.436;21.390;2022-09-21T09:32:00;101017.25;;;18.40;47.18
64086;BME280;50333;47.436;21.390;2022-09-21T09:34:34;101005.22;;;18.84;47.41
64086;BME280;50333;47.436;21.390;2022-09-21T09:37:11;101005.41;;;18.74;45.20
64086;BME280;50333;47.436;21.390;2022-09-21T09:39:40;101004.53;;;19.33;46.77
64086;BME280;50333;47.436;21.390;2022-09-21T09:42:55;100993.59;;;19.57;43.57
64086;BME280;50333;47.436;21.390;2022-09-21T09:45:49;100995.47;;;19.56;44.33
64086;BME280;50333;47.436;21.390;2022-09-21T09:51:23;100998.22;;;19.11;43.70
64086;BME280;50333;47.436;21.390;2022-09-21T09:53:55;100996.72;;;19.59;44.92
64086;BME280;50333;47.436;21.390;2022-09-21T09:56:25;101003.72;;;19.24;45.07
64086;BME280;50333;47.436;21.390;2022-09-21T09:59:04;101004.41;;;19.38;44.68
64086;BME280;50333;47.436;21.390;2022-09-21T10:01:46;101004.44;;;19.15;45.82
64086;BME280;50333;47.436;21.390;2022-09-21T10:04:25;101001.03;;;18.70;45.77
64086;BME280;50333;47.436;21.390;2022-09-21T10:06:53;101002.03;;;18.60;45.44
64086;BME280;50333;47.436;21.390;2022-09-21T10:11:55;100998.53;;;18.51;46.02
64086;BME280;50333;47.436;21.390;2022-09-21T10:14:26;100994.53;;;18.17;46.57
64086;BME280;50333;47.436;21.390;2022-09-21T10:17:03;100997.28;;;17.98;46.60
64086;BME280;50333;47.436;21.390;2022-09-21T10:19:32;100989.22;;;18.31;45.90
64086;BME280;50333;47.436;21.390;2022-09-21T10:22:01;100983.69;;;19.00;44.71
64086;BME280;50333;47.436;21.390;2022-09-21T10:24:33;100986.19;;;18.60;45.00
64086;BME280;50333;47.436;21.390;2022-09-21T10:29:45;100983.06;;;18.80;45.16
64086;BME280;50333;47.436;21.390;2022-09-21T10:37:41;100981.00;;;19.22;43.35
64086;BME280;50333;47.436;21.390;2022-09-21T10:42:51;100984.41;;;19.14;44.58
64086;BME280;50333;47.436;21.390;2022-09-21T10:45:30;100979.13;;;18.69;44.56
64086;BME280;50333;47.436;21.390;2022-09-21T10:50:43;100982.66;;;19.41;43.28
64086;BME280;50333;47.436;21.390;2022-09-21T10:56:01;100978.28;;;19.05;43.92
64086;BME280;50333;47.436;21.390;2022-09-21T11:01:53;100976.28;;;19.42;43.29
64086;BME280;50333;47.436;21.390;2022-09-21T11:06:57;100968.63;;;19.32;44.00
64086;BME280;50333;47.436;21.390;2022-09-21T11:09:37;100971.09;;;19.28;44.42
64086;BME280;50333;47.436;21.390;2022-09-21T11:17:44;100973.16;;;19.40;43.79
64086;BME280;50333;47.436;21.390;2022-09-21T11:24:15;100958.16;;;19.67;42.49
64086;BME280;50333;47.436;21.390;2022-09-21T11:26:16;100958.59;;;19.51;42.96
64086;BME280;50333;47.436;21.390;2022-09-21T11:29:01;100955.72;;;19.79;42.80
64086;BME280;50333;47.436;21.390;2022-09-21T11:31:55;100944.88;;;19.98;42.09
64086;BME280;50333;47.436;21.390;2022-09-21T11:43:16;100948.97;;;19.24;43.90
64086;BME280;50333;47.436;21.390;2022-09-21T12:11:41;100939.84;;;18.76;45.92
64086;BME280;50333;47.436;21.390;2022-09-21T12:14:51;100943.88;;;18.74;45.68
64086;BME280;50333;47.436;21.390;2022-09-21T12:20:39;100932.94;;;19.20;45.09
64086;BME280;50333;47.436;21.390;2022-09-21T12:23:27;100926.16;;;18.97;46.00
64086;BME280;50333;47.436;21.390;2022-09-21T12:25:59;100932.31;;;18.83;44.11
64086;BME280;50333;47.436;21.390;2022-09-21T12:28:37;100921.84;;;18.78;44.46
64086;BME280;50333;47.436;21.390;2022-09-21T12:31:17;100931.87;;;19.21;43.53
64086;BME280;50333;47.436;21.390;2022-09-21T12:36:23;100928.81;;;18.52;43.45
64086;BME280;50333;47.436;21.390;2022-09-21T12:39:00;100930.81;;;19.00;44.04
64086;BME280;50333;47.436;21.390;2022-09-21T12:44:30;100914.97;;;19.00;43.29
64086;BME280;50333;47.436;21.390;2022-09-21T12:47:04;100916.06;;;18.99;41.73
64086;BME280;50333;47.436;21.390;2022-09-21T12:49:45;100914.81;;;18.96;42.25
64086;BME280;50333;47.436;21.390;2022-09-21T12:52:20;100908.37;;;19.20;42.13
64086;BME280;50333;47.436;21.390;2022-09-21T13:08:59;100927.06;;;18.70;42.67
64086;BME280;50333;47.436;21.390;2022-09-21T13:11:32;100920.16;;;18.37;44.18
64086;BME280;50333;47.436;21.390;2022-09-21T13:14:02;100916.09;;;18.76;43.49
64086;BME280;50333;47.436;21.390;2022-09-21T13:16:36;100934.66;;;17.89;45.69
64086;BME280;50333;47.436;21.390;2022-09-21T13:21:39;100927.81;;;18.25;44.31
64086;BME280;50333;47.436;21.390;2022-09-21T13:24:24;100934.84;;;17.93;45.30
64086;BME280;50333;47.436;21.390;2022-09-21T13:26:54;100934.94;;;17.88;44.75
64086;BME280;50333;47.436;21.390;2022-09-21T13:29:27;100938.13;;;18.13;43.59
64086;BME280;50333;47.436;21.390;2022-09-21T13:31:58;100931.16;;;18.31;43.42
64086;BME280;50333;47.436;21.390;2022-09-21T13:34:40;100939.84;;;17.53;44.80
64086;BME280;50333;47.436;21.390;2022-09-21T13:45:46;100936.53;;;17.89;46.82
64086;BME280;50333;47.436;21.390;2022-09-21T13:47:54;100932.59;;;17.86;46.28
64086;BME280;50333;47.436;21.390;2022-09-21T13:52:59;100934.53;;;17.25;47.96
64086;BME280;50333;47.436;21.390;2022-09-21T13:55:31;100939.44;;;17.32;48.35
64086;BME280;50333;47.436;21.390;2022-09-21T13:58:03;100925.22;;;17.47;48.07
64086;BME280;50333;47.436;21.390;2022-09-21T14:00:57;100930.34;;;17.52;48.70
64086;BME280;50333;47.436;21.390;2022-09-21T14:03:41;100933.84;;;17.06;49.16
64086;BME280;50333;47.436;21.390;2022-09-21T14:09:00;100930.47;;;17.33;48.26
64086;BME280;50333;47.436;21.390;2022-09-21T14:14:07;100932.41;;;17.27;48.60
64086;BME280;50333;47.436;21.390;2022-09-21T14:24:42;100931.28;;;17.01;48.80
64086;BME280;50333;47.436;21.390;2022-09-21T14:29:51;100938.06;;;17.07;47.65
64086;BME280;50333;47.436;21.390;2022-09-21T14:32:22;100933.56;;;17.07;47.60
64086;BME280;50333;47.436;21.390;2022-09-21T14:34:55;100939.19;;;17.01;47.86
64086;BME280;50333;47.436;21.390;2022-09-21T14:37:35;100944.72;;;17.32;47.67
64086;BME280;50333;47.436;21.390;2022-09-21T14:40:24;100943.34;;;17.48;47.40
64086;BME280;50333;47.436;21.390;2022-09-21T14:42:54;100951.25;;;17.62;46.20
64086;BME280;50333;47.436;21.390;2022-09-21T14:45:30;100948.59;;;17.34;47.28
64086;BME280;50333;47.436;21.390;2022-09-21T15:02:08;100991.44;;;15.69;60.92
64086;BME280;50333;47.436;21.390;2022-09-21T15:10:35;101010.34;;;15.47;63.52
64086;BME280;50333;47.436;21.390;2022-09-21T15:13:43;101004.13;;;15.62;63.77
64086;BME280;50333;47.436;21.390;2022-09-21T15:16:18;100992.44;;;15.49;64.17
64086;BME280;50333;47.436;21.390;2022-09-21T15:18:50;100995.84;;;15.20;66.28
64086;BME280;50333;47.436;21.390;2022-09-21T15:21:28;100988.53;;;15.46;66.22
64086;BME280;50333;47.436;21.390;2022-09-21T15:23:56;100983.28;;;15.71;66.11
64086;BME280;50333;47.436;21.390;2022-09-21T15:26:29;100973.47;;;15.28;67.94
64086;BME280;50333;47.436;21.390;2022-09-21T15:29:02;100985.50;;;14.65;70.17
64086;BME280;50333;47.436;21.390;2022-09-21T15:31:39;100983.91;;;14.64;70.25
64086;BME280;50333;47.436;21.390;2022-09-21T15:34:09;100988.97;;;14.95;69.79
64086;BME280;50333;47.436;21.390;2022-09-21T15:36:40;100983.28;;;14.83;68.43
64086;BME280;50333;47.436;21.390;2022-09-21T15:39:29;100988.00;;;14.86;68.92
64086;BME280;50333;47.436;21.390;2022-09-21T15:44:35;100986.50;;;15.09;67.99
64086;BME280;50333;47.436;21.390;2022-09-21T15:47:09;100987.72;;;15.46;67.56
64086;BME280;50333;47.436;21.390;2022-09-21T15:49:40;100983.47;;;15.26;67.69
64086;BME280;50333;47.436;21.390;2022-09-21T15:52:23;100989.00;;;15.54;67.31
64086;BME280;50333;47.436;21.390;2022-09-21T15:55:17;100979.09;;;15.70;66.30
64086;BME280;50333;47.436;21.390;2022-09-21T15:57:49;100987.53;;;15.67;66.99
64086;BME280;50333;47.436;21.390;2022-09-21T16:00:22;100984.72;;;15.58;66.91
64086;BME280;50333;47.436;21.390;2022-09-21T16:03:01;100978.53;;;15.49;67.33
64086;BME280;50333;47.436;21.390;2022-09-21T16:05:47;100974.62;;;15.70;66.84
64086;BME280;50333;47.436;21.390;2022-09-21T16:11:10;100982.69;;;15.50;65.98
64086;BME280;50333;47.436;21.390;2022-09-21T16:13:39;100984.84;;;15.48;66.82
64086;BME280;50333;47.436;21.390;2022-09-21T16:16:26;100982.87;;;15.58;66.65
64086;BME280;50333;47.436;21.390;2022-09-21T16:18:55;100991.16;;;15.17;67.95
64086;BME280;50333;47.436;21.390;2022-09-21T16:21:33;100985.97;;;15.41;67.03
64086;BME280;50333;47.436;21.390;2022-09-21T16:24:17;100988.59;;;15.41;66.91
64086;BME280;50333;47.436;21.390;2022-09-21T16:27:01;100995.63;;;15.46;67.07
64086;BME280;50333;47.436;21.390;2022-09-21T16:29:40;100989.53;;;15.51;66.89